sensor_id;sensor_type;location;lat;lon;timestamp;temperature;humidity
35613;DHT22;22054;51.646;7.078;2023-05-10T00:01:53;13.70;99.90
35613;DHT22;22054;51.646;7.078;2023-05-10T00:05:18;13.90;99.90
35613;DHT22;22054;51.646;7.078;2023-05-10T00:08:42;13.80;99.90
35613;DHT22;22054;51.646;7.078;2023-05-10T00:12:06;13.80;99.90
35613;DHT22;22054;51.646;7.078;2023-05-10T00:15:30;13.90;99.90
35613;DHT22;22054;51.646;7.078;2023-05-10T00:18:55;13.80;99.90
35613;DHT22;22054;51.646;7.078;2023-05-10T00:22:19;13.80;99.90
35613;DHT22;22054;51.646;7.078;2023-05-10T00:25:44;13.80;99.90
35613;DHT22;22054;51.646;7.078;2023-05-10T00:29:08;13.80;99.90
35613;DHT22;22054;51.646;7.078;2023-05-10T00:32:32;13.90;99.90
35613;DHT22;22054;51.646;7.078;2023-05-10T00:35:56;13.90;99.90
35613;DHT22;22054;51.646;7.078;2023-05-10T00:39:21;13.90;99.90
35613;DHT22;22054;51.646;7.078;2023-05-10T00:42:46;13.80;99.90
35613;DHT22;22054;51.646;7.078;2023-05-10T00:46:10;13.80;99.90
35613;DHT22;22054;51.646;7.078;2023-05-10T00:49:35;13.80;99.90
35613;DHT22;22054;51.646;7.078;2023-05-10T00:53:00;14.00;99.90
35613;DHT22;22054;51.646;7.078;2023-05-10T00:56:25;13.90;99.90
35613;DHT22;22054;51.646;7.078;2023-05-10T00:59:50;13.90;99.90
35613;DHT22;22054;51.646;7.078;2023-05-10T01:03:15;13.80;99.90
35613;DHT22;22054;51.646;7.078;2023-05-10T01:06:40;13.70;99.90
35613;DHT22;22054;51.646;7.078;2023-05-10T01:10:06;13.70;99.90
35613;DHT22;22054;51.646;7.078;2023-05-10T01:13:38;13.60;99.90
35613;DHT22;22054;51.646;7.078;2023-05-10T01:17:10;13.60;99.90
35613;DHT22;22054;51.646;7.078;2023-05-10T01:20:40;13.60;99.90
35613;DHT22;22054;51.646;7.078;2023-05-10T01:32:19;13.50;99.90
35613;DHT22;22054;51.646;7.078;2023-05-10T01:36:48;13.40;99.90
35613;DHT22;22054;51.646;7.078;2023-05-10T01:48:03;13.10;99.90
35613;DHT22;22054;51.646;7.078;2023-05-10T01:51:41;13.00;99.90
35613;DHT22;22054;51.646;7.078;2023-05-10T01:55:14;13.00;99.90
35613;DHT22;22054;51.646;7.078;2023-05-10T01:58:40;12.90;99.90
35613;DHT22;22054;51.646;7.078;2023-05-10T02:02:08;12.80;99.90
35613;DHT22;22054;51.646;7.078;2023-05-10T02:05:34;12.80;99.90
35613;DHT22;22054;51.646;7.078;2023-05-10T02:09:01;13.00;99.90
35613;DHT22;22054;51.646;7.078;2023-05-10T02:12:26;12.90;99.90
35613;DHT22;22054;51.646;7.078;2023-05-10T02:15:51;12.80;99.90
35613;DHT22;22054;51.646;7.078;2023-05-10T02:19:17;12.70;99.90
35613;DHT22;22054;51.646;7.078;2023-05-10T02:22:43;12.90;99.90
35613;DHT22;22054;51.646;7.078;2023-05-10T02:26:09;12.70;99.90
35613;DHT22;22054;51.646;7.078;2023-05-10T02:29:35;12.80;99.90
35613;DHT22;22054;51.646;7.078;2023-05-10T02:33:01;12.90;99.90
35613;DHT22;22054;51.646;7.078;2023-05-10T02:36:28;12.90;99.90
35613;DHT22;22054;51.646;7.078;2023-05-10T02:39:55;12.90;99.90
35613;DHT22;22054;51.646;7.078;2023-05-10T02:43:22;13.00;99.90
35613;DHT22;22054;51.646;7.078;2023-05-10T02:46:47;13.00;99.90
35613;DHT22;22054;51.646;7.078;2023-05-10T02:50:12;13.10;99.90
35613;DHT22;22054;51.646;7.078;2023-05-10T02:53:38;13.00;99.90
35613;DHT22;22054;51.646;7.078;2023-05-10T02:57:07;13.10;99.90
35613;DHT22;22054;51.646;7.078;2023-05-10T03:00:33;13.10;99.90
35613;DHT22;22054;51.646;7.078;2023-05-10T03:03:57;13.20;99.90
35613;DHT22;22054;51.646;7.078;2023-05-10T03:07:22;13.40;99.90
35613;DHT22;22054;51.646;7.078;2023-05-10T03:11:16;13.10;99.90
35613;DHT22;22054;51.646;7.078;2023-05-10T03:15:06;13.00;99.90
35613;DHT22;22054;51.646;7.078;2023-05-10T03:22:10;13.00;99.90
35613;DHT22;22054;51.646;7.078;2023-05-10T03:25:43;13.10;99.90
35613;DHT22;22054;51.646;7.078;2023-05-10T03:29:10;13.20;99.90
35613;DHT22;22054;51.646;7.078;2023-05-10T03:32:36;13.20;99.90
35613;DHT22;22054;51.646;7.078;2023-05-10T03:36:16;13.20;99.90
35613;DHT22;22054;51.646;7.078;2023-05-10T03:39:40;13.30;99.90
35613;DHT22;22054;51.646;7.078;2023-05-10T03:43:07;13.20;99.90
35613;DHT22;22054;51.646;7.078;2023-05-10T03:46:31;13.20;99.90
35613;DHT22;22054;51.646;7.078;2023-05-10T03:49:55;13.20;99.90
35613;DHT22;22054;51.646;7.078;2023-05-10T03:53:21;13.30;99.90
35613;DHT22;22054;51.646;7.078;2023-05-10T03:56:47;13.60;99.90
35613;DHT22;22054;51.646;7.078;2023-05-10T04:00:11;13.30;99.90
35613;DHT22;22054;51.646;7.078;2023-05-10T04:03:36;13.30;99.90
35613;DHT22;22054;51.646;7.078;2023-05-10T04:07:01;13.30;99.90
35613;DHT22;22054;51.646;7.078;2023-05-10T04:10:25;13.50;99.90
35613;DHT22;22054;51.646;7.078;2023-05-10T04:13:50;13.20;99.90
35613;DHT22;22054;51.646;7.078;2023-05-10T04:17:14;13.50;99.90
35613;DHT22;22054;51.646;7.078;2023-05-10T04:20:38;13.30;99.90
35613;DHT22;22054;51.646;7.078;2023-05-10T04:24:03;13.30;99.90
35613;DHT22;22054;51.646;7.078;2023-05-10T04:27:28;13.40;99.90
35613;DHT22;22054;51.646;7.078;2023-05-10T04:30:52;13.40;99.90
35613;DHT22;22054;51.646;7.078;2023-05-10T04:34:16;13.50;99.90
35613;DHT22;22054;51.646;7.078;2023-05-10T04:37:40;13.40;99.90
35613;DHT22;22054;51.646;7.078;2023-05-10T04:41:09;13.40;99.90
35613;DHT22;22054;51.646;7.078;2023-05-10T04:44:34;13.40;99.90
35613;DHT22;22054;51.646;7.078;2023-05-10T04:47:58;13.20;99.90
35613;DHT22;22054;51.646;7.078;2023-05-10T04:51:22;13.70;99.90
35613;DHT22;22054;51.646;7.078;2023-05-10T04:54:47;13.50;99.90
35613;DHT22;22054;51.646;7.078;2023-05-10T04:58:12;13.50;99.90
35613;DHT22;22054;51.646;7.078;2023-05-10T05:01:36;13.50;99.90
35613;DHT22;22054;51.646;7.078;2023-05-10T05:05:00;13.50;99.90
35613;DHT22;22054;51.646;7.078;2023-05-10T05:08:24;13.40;99.90
35613;DHT22;22054;51.646;7.078;2023-05-10T05:11:48;13.60;99.90
35613;DHT22;22054;51.646;7.078;2023-05-10T05:15:13;13.60;99.90
35613;DHT22;22054;51.646;7.078;2023-05-10T05:18:37;13.60;99.90
35613;DHT22;22054;51.646;7.078;2023-05-10T05:22:02;13.50;99.90
35613;DHT22;22054;51.646;7.078;2023-05-10T05:25:26;13.60;99.90
35613;DHT22;22054;51.646;7.078;2023-05-10T05:28:51;13.70;99.90
35613;DHT22;22054;51.646;7.078;2023-05-10T05:32:16;13.50;99.90
35613;DHT22;22054;51.646;7.078;2023-05-10T05:35:41;13.40;99.90
35613;DHT22;22054;51.646;7.078;2023-05-10T05:39:05;13.50;99.90
35613;DHT22;22054;51.646;7.078;2023-05-10T05:42:31;13.50;99.90
35613;DHT22;22054;51.646;7.078;2023-05-10T05:45:55;13.50;99.90
35613;DHT22;22054;51.646;7.078;2023-05-10T05:49:19;13.50;99.90
35613;DHT22;22054;51.646;7.078;2023-05-10T05:52:43;13.50;99.90
35613;DHT22;22054;51.646;7.078;2023-05-10T05:56:08;13.60;99.90
35613;DHT22;22054;51.646;7.078;2023-05-10T05:59:32;13.60;99.90
35613;DHT22;22054;51.646;7.078;2023-05-10T06:02:56;13.70;99.90
35613;DHT22;22054;51.646;7.078;2023-05-10T06:06:21;13.50;99.90
35613;DHT22;22054;51.646;7.078;2023-05-10T06:09:45;13.60;99.90
35613;DHT22;22054;51.646;7.078;2023-05-10T06:13:10;13.60;99.90
35613;DHT22;22054;51.646;7.078;2023-05-10T06:16:35;13.70;99.90
35613;DHT22;22054;51.646;7.078;2023-05-10T06:19:59;13.80;99.90
35613;DHT22;22054;51.646;7.078;2023-05-10T06:23:23;13.80;99.90
35613;DHT22;22054;51.646;7.078;2023-05-10T06:26:47;14.20;99.90
35613;DHT22;22054;51.646;7.078;2023-05-10T06:30:12;14.60;99.90
35613;DHT22;22054;51.646;7.078;2023-05-10T06:33:37;14.60;99.90
35613;DHT22;22054;51.646;7.078;2023-05-10T06:37:01;14.70;99.90
35613;DHT22;22054;51.646;7.078;2023-05-10T06:40:25;14.80;99.90
35613;DHT22;22054;51.646;7.078;2023-05-10T06:43:50;14.90;99.90
35613;DHT22;22054;51.646;7.078;2023-05-10T06:47:14;15.00;99.90
35613;DHT22;22054;51.646;7.078;2023-05-10T06:50:38;14.90;99.90
35613;DHT22;22054;51.646;7.078;2023-05-10T06:54:03;15.00;99.90
35613;DHT22;22054;51.646;7.078;2023-05-10T06:57:29;14.90;99.90
35613;DHT22;22054;51.646;7.078;2023-05-10T07:00:53;14.90;99.90
35613;DHT22;22054;51.646;7.078;2023-05-10T07:04:17;15.00;99.90
35613;DHT22;22054;51.646;7.078;2023-05-10T07:07:41;15.20;99.90
35613;DHT22;22054;51.646;7.078;2023-05-10T07:11:06;15.00;99.90
35613;DHT22;22054;51.646;7.078;2023-05-10T07:14:30;15.00;99.90
35613;DHT22;22054;51.646;7.078;2023-05-10T07:17:55;15.10;99.90
35613;DHT22;22054;51.646;7.078;2023-05-10T07:21:19;15.30;99.90
35613;DHT22;22054;51.646;7.078;2023-05-10T07:24:43;15.60;99.90
35613;DHT22;22054;51.646;7.078;2023-05-10T07:28:08;16.10;99.90
35613;DHT22;22054;51.646;7.078;2023-05-10T07:31:32;16.30;99.90
35613;DHT22;22054;51.646;7.078;2023-05-10T07:34:56;16.40;99.90
35613;DHT22;22054;51.646;7.078;2023-05-10T07:38:21;16.60;99.90
35613;DHT22;22054;51.646;7.078;2023-05-10T07:41:48;16.30;99.90
35613;DHT22;22054;51.646;7.078;2023-05-10T07:45:12;16.00;99.90
35613;DHT22;22054;51.646;7.078;2023-05-10T07:48:37;16.10;99.90
35613;DHT22;22054;51.646;7.078;2023-05-10T07:52:03;16.20;99.90
35613;DHT22;22054;51.646;7.078;2023-05-10T07:55:27;16.40;99.90
35613;DHT22;22054;51.646;7.078;2023-05-10T07:58:58;16.40;99.90
35613;DHT22;22054;51.646;7.078;2023-05-10T08:02:22;16.30;99.90
35613;DHT22;22054;51.646;7.078;2023-05-10T08:05:47;16.30;99.90
35613;DHT22;22054;51.646;7.078;2023-05-10T08:09:11;16.40;99.90
35613;DHT22;22054;51.646;7.078;2023-05-10T08:12:38;16.60;99.90
35613;DHT22;22054;51.646;7.078;2023-05-10T08:16:03;16.60;99.90
35613;DHT22;22054;51.646;7.078;2023-05-10T08:19:28;16.90;99.90
35613;DHT22;22054;51.646;7.078;2023-05-10T08:22:52;17.00;99.90
35613;DHT22;22054;51.646;7.078;2023-05-10T08:26:16;16.80;99.90
35613;DHT22;22054;51.646;7.078;2023-05-10T08:29:41;16.60;99.90
35613;DHT22;22054;51.646;7.078;2023-05-10T08:33:05;16.80;99.90
35613;DHT22;22054;51.646;7.078;2023-05-10T08:36:29;16.90;99.90
35613;DHT22;22054;51.646;7.078;2023-05-10T08:39:55;16.90;99.90
35613;DHT22;22054;51.646;7.078;2023-05-10T08:43:22;17.10;99.90
35613;DHT22;22054;51.646;7.078;2023-05-10T08:46:49;17.10;99.90
35613;DHT22;22054;51.646;7.078;2023-05-10T08:50:15;17.20;99.90
35613;DHT22;22054;51.646;7.078;2023-05-10T08:53:44;17.30;99.90
35613;DHT22;22054;51.646;7.078;2023-05-10T08:57:09;17.60;99.90
35613;DHT22;22054;51.646;7.078;2023-05-10T09:00:34;17.80;99.90
35613;DHT22;22054;51.646;7.078;2023-05-10T09:03:59;17.90;99.90
35613;DHT22;22054;51.646;7.078;2023-05-10T09:07:23;18.00;99.90
35613;DHT22;22054;51.646;7.078;2023-05-10T09:10:52;18.20;99.90
35613;DHT22;22054;51.646;7.078;2023-05-10T09:14:17;17.40;99.90
35613;DHT22;22054;51.646;7.078;2023-05-10T09:17:45;17.30;99.90
35613;DHT22;22054;51.646;7.078;2023-05-10T09:21:10;17.80;99.90
35613;DHT22;22054;51.646;7.078;2023-05-10T09:24:34;18.40;99.90
35613;DHT22;22054;51.646;7.078;2023-05-10T09:27:59;18.50;99.90
35613;DHT22;22054;51.646;7.078;2023-05-10T09:31:24;18.70;1.00
35613;DHT22;22054;51.646;7.078;2023-05-10T09:35:16;18.40;25.20
35613;DHT22;22054;51.646;7.078;2023-05-10T09:38:50;18.10;7.80
35613;DHT22;22054;51.646;7.078;2023-05-10T09:42:18;17.80;24.00
35613;DHT22;22054;51.646;7.078;2023-05-10T09:45:42;17.60;99.90
35613;DHT22;22054;51.646;7.078;2023-05-10T09:49:06;17.40;99.90
35613;DHT22;22054;51.646;7.078;2023-05-10T09:52:49;17.00;99.90
35613;DHT22;22054;51.646;7.078;2023-05-10T09:56:33;16.80;99.90
35613;DHT22;22054;51.646;7.078;2023-05-10T10:03:23;17.10;99.90
35613;DHT22;22054;51.646;7.078;2023-05-10T10:07:02;17.50;99.90
35613;DHT22;22054;51.646;7.078;2023-05-10T10:10:32;17.80;35.00
35613;DHT22;22054;51.646;7.078;2023-05-10T10:13:56;17.80;99.90
35613;DHT22;22054;51.646;7.078;2023-05-10T10:17:21;17.90;63.00
35613;DHT22;22054;51.646;7.078;2023-05-10T10:20:49;18.00;1.00
35613;DHT22;22054;51.646;7.078;2023-05-10T10:24:14;18.30;1.00
35613;DHT22;22054;51.646;7.078;2023-05-10T10:31:34;18.30;1.00
35613;DHT22;22054;51.646;7.078;2023-05-10T10:35:08;18.60;1.00
35613;DHT22;22054;51.646;7.078;2023-05-10T10:42:44;18.70;1.00
35613;DHT22;22054;51.646;7.078;2023-05-10T10:46:17;18.50;1.00
35613;DHT22;22054;51.646;7.078;2023-05-10T10:49:50;18.20;1.00
35613;DHT22;22054;51.646;7.078;2023-05-10T10:53:21;17.50;40.00
35613;DHT22;22054;51.646;7.078;2023-05-10T10:57:11;17.30;61.00
35613;DHT22;22054;51.646;7.078;2023-05-10T11:00:36;17.70;16.50
35613;DHT22;22054;51.646;7.078;2023-05-10T11:07:59;17.40;35.50
35613;DHT22;22054;51.646;7.078;2023-05-10T11:11:23;17.30;1.00
35613;DHT22;22054;51.646;7.078;2023-05-10T11:14:50;17.30;1.00
35613;DHT22;22054;51.646;7.078;2023-05-10T11:18:20;17.50;1.00
35613;DHT22;22054;51.646;7.078;2023-05-10T11:21:49;18.10;1.00
35613;DHT22;22054;51.646;7.078;2023-05-10T11:25:15;18.40;1.00
35613;DHT22;22054;51.646;7.078;2023-05-10T11:28:43;19.20;1.00
35613;DHT22;22054;51.646;7.078;2023-05-10T11:32:08;19.70;1.00
35613;DHT22;22054;51.646;7.078;2023-05-10T11:35:40;19.80;1.00
35613;DHT22;22054;51.646;7.078;2023-05-10T11:39:05;19.30;1.00
35613;DHT22;22054;51.646;7.078;2023-05-10T11:42:30;18.80;1.00
35613;DHT22;22054;51.646;7.078;2023-05-10T11:46:11;18.60;1.00
35613;DHT22;22054;51.646;7.078;2023-05-10T11:49:35;18.20;1.00
35613;DHT22;22054;51.646;7.078;2023-05-10T11:56:38;18.00;1.00
35613;DHT22;22054;51.646;7.078;2023-05-10T12:00:25;17.80;1.00
35613;DHT22;22054;51.646;7.078;2023-05-10T12:03:57;17.80;1.00
35613;DHT22;22054;51.646;7.078;2023-05-10T12:07:27;17.70;1.00
35613;DHT22;22054;51.646;7.078;2023-05-10T12:11:04;17.70;1.00
35613;DHT22;22054;51.646;7.078;2023-05-10T12:14:39;18.40;1.00
35613;DHT22;22054;51.646;7.078;2023-05-10T12:18:05;18.70;1.00
35613;DHT22;22054;51.646;7.078;2023-05-10T12:21:40;18.80;1.00
35613;DHT22;22054;51.646;7.078;2023-05-10T12:25:30;18.90;1.00
35613;DHT22;22054;51.646;7.078;2023-05-10T12:33:40;19.50;1.00
35613;DHT22;22054;51.646;7.078;2023-05-10T12:37:41;20.00;1.00
35613;DHT22;22054;51.646;7.078;2023-05-10T12:41:50;19.50;1.00
35613;DHT22;22054;51.646;7.078;2023-05-10T12:45:41;18.80;1.00
35613;DHT22;22054;51.646;7.078;2023-05-10T12:49:15;18.90;1.00
35613;DHT22;22054;51.646;7.078;2023-05-10T13:01:48;20.70;99.90
35613;DHT22;22054;51.646;7.078;2023-05-10T13:05:18;21.40;99.90
35613;DHT22;22054;51.646;7.078;2023-05-10T13:08:43;21.80;99.90
35613;DHT22;22054;51.646;7.078;2023-05-10T13:12:08;22.00;99.90
35613;DHT22;22054;51.646;7.078;2023-05-10T13:15:33;21.70;99.90
35613;DHT22;22054;51.646;7.078;2023-05-10T13:18:58;21.60;99.90
35613;DHT22;22054;51.646;7.078;2023-05-10T13:22:22;21.10;1.00
35613;DHT22;22054;51.646;7.078;2023-05-10T13:25:46;20.60;1.00
35613;DHT22;22054;51.646;7.078;2023-05-10T13:29:12;20.80;99.90
35613;DHT22;22054;51.646;7.078;2023-05-10T13:32:37;21.30;1.00
35613;DHT22;22054;51.646;7.078;2023-05-10T13:36:14;23.80;99.90
35613;DHT22;22054;51.646;7.078;2023-05-10T13:39:54;25.70;99.90
35613;DHT22;22054;51.646;7.078;2023-05-10T13:43:23;26.80;99.90
35613;DHT22;22054;51.646;7.078;2023-05-10T13:46:53;27.40;98.70
35613;DHT22;22054;51.646;7.078;2023-05-10T13:50:39;28.70;98.10
35613;DHT22;22054;51.646;7.078;2023-05-10T13:54:10;29.70;89.30
35613;DHT22;22054;51.646;7.078;2023-05-10T13:57:51;29.00;86.60
35613;DHT22;22054;51.646;7.078;2023-05-10T14:01:48;30.40;81.60
35613;DHT22;22054;51.646;7.078;2023-05-10T14:08:54;27.90;93.40
35613;DHT22;22054;51.646;7.078;2023-05-10T14:12:18;27.20;93.00
35613;DHT22;22054;51.646;7.078;2023-05-10T14:15:42;27.20;92.40
35613;DHT22;22054;51.646;7.078;2023-05-10T14:19:09;27.80;93.50
35613;DHT22;22054;51.646;7.078;2023-05-10T14:22:34;30.20;89.90
35613;DHT22;22054;51.646;7.078;2023-05-10T14:25:58;30.70;80.60
35613;DHT22;22054;51.646;7.078;2023-05-10T14:29:22;30.30;76.40
35613;DHT22;22054;51.646;7.078;2023-05-10T14:36:11;24.70;93.80
35613;DHT22;22054;51.646;7.078;2023-05-10T14:39:36;22.90;99.90
35613;DHT22;22054;51.646;7.078;2023-05-10T14:43:01;21.40;99.90
35613;DHT22;22054;51.646;7.078;2023-05-10T14:46:25;20.90;99.90
35613;DHT22;22054;51.646;7.078;2023-05-10T14:49:50;20.70;99.90
35613;DHT22;22054;51.646;7.078;2023-05-10T14:53:16;22.40;99.90
35613;DHT22;22054;51.646;7.078;2023-05-10T14:56:40;23.20;99.90
35613;DHT22;22054;51.646;7.078;2023-05-10T15:00:05;23.80;99.90
35613;DHT22;22054;51.646;7.078;2023-05-10T15:03:31;25.30;99.90
35613;DHT22;22054;51.646;7.078;2023-05-10T15:06:55;24.30;99.90
35613;DHT22;22054;51.646;7.078;2023-05-10T15:10:20;23.70;99.90
35613;DHT22;22054;51.646;7.078;2023-05-10T15:13:44;23.40;99.90
35613;DHT22;22054;51.646;7.078;2023-05-10T15:17:08;23.10;99.90
35613;DHT22;22054;51.646;7.078;2023-05-10T15:20:33;22.10;99.90
35613;DHT22;22054;51.646;7.078;2023-05-10T15:24:04;21.80;99.90
35613;DHT22;22054;51.646;7.078;2023-05-10T15:27:38;21.10;99.90
35613;DHT22;22054;51.646;7.078;2023-05-10T15:31:02;20.50;99.90
35613;DHT22;22054;51.646;7.078;2023-05-10T15:34:27;20.30;99.90
35613;DHT22;22054;51.646;7.078;2023-05-10T15:37:51;20.40;99.90
35613;DHT22;22054;51.646;7.078;2023-05-10T15:44:40;20.40;99.90
35613;DHT22;22054;51.646;7.078;2023-05-10T15:48:04;20.40;99.90
35613;DHT22;22054;51.646;7.078;2023-05-10T15:51:28;20.90;99.90
35613;DHT22;22054;51.646;7.078;2023-05-10T15:54:53;22.10;99.90
35613;DHT22;22054;51.646;7.078;2023-05-10T15:58:17;23.10;99.90
35613;DHT22;22054;51.646;7.078;2023-05-10T16:01:41;23.50;99.90
35613;DHT22;22054;51.646;7.078;2023-05-10T16:05:06;22.80;99.90
35613;DHT22;22054;51.646;7.078;2023-05-10T16:08:31;22.00;99.90
35613;DHT22;22054;51.646;7.078;2023-05-10T16:11:55;21.20;99.90
35613;DHT22;22054;51.646;7.078;2023-05-10T16:15:20;21.00;99.90
35613;DHT22;22054;51.646;7.078;2023-05-10T16:18:44;20.70;99.90
35613;DHT22;22054;51.646;7.078;2023-05-10T16:22:08;20.00;99.90
35613;DHT22;22054;51.646;7.078;2023-05-10T16:25:33;19.80;99.90
35613;DHT22;22054;51.646;7.078;2023-05-10T16:29:04;19.70;99.90
35613;DHT22;22054;51.646;7.078;2023-05-10T16:32:28;19.40;99.90
35613;DHT22;22054;51.646;7.078;2023-05-10T16:35:52;19.60;99.90
35613;DHT22;22054;51.646;7.078;2023-05-10T16:39:17;19.30;99.90
35613;DHT22;22054;51.646;7.078;2023-05-10T16:42:41;19.30;99.90
35613;DHT22;22054;51.646;7.078;2023-05-10T16:46:09;19.10;99.90
35613;DHT22;22054;51.646;7.078;2023-05-10T16:49:38;18.90;99.90
35613;DHT22;22054;51.646;7.078;2023-05-10T16:53:02;18.70;99.90
35613;DHT22;22054;51.646;7.078;2023-05-10T16:56:28;18.50;99.90
35613;DHT22;22054;51.646;7.078;2023-05-10T16:59:52;18.10;99.90
35613;DHT22;22054;51.646;7.078;2023-05-10T17:03:16;18.10;99.90
35613;DHT22;22054;51.646;7.078;2023-05-10T17:06:40;18.20;99.90
35613;DHT22;22054;51.646;7.078;2023-05-10T17:10:05;18.20;99.90
35613;DHT22;22054;51.646;7.078;2023-05-10T17:13:30;18.40;99.90
35613;DHT22;22054;51.646;7.078;2023-05-10T17:16:54;18.20;99.90
35613;DHT22;22054;51.646;7.078;2023-05-10T17:20:19;18.20;99.90
35613;DHT22;22054;51.646;7.078;2023-05-10T17:23:43;18.10;99.90
35613;DHT22;22054;51.646;7.078;2023-05-10T17:27:07;18.00;99.90
35613;DHT22;22054;51.646;7.078;2023-05-10T17:30:32;18.00;99.90
35613;DHT22;22054;51.646;7.078;2023-05-10T17:33:57;18.00;99.90
35613;DHT22;22054;51.646;7.078;2023-05-10T17:37:35;17.90;99.90
35613;DHT22;22054;51.646;7.078;2023-05-10T17:41:00;17.80;99.90
35613;DHT22;22054;51.646;7.078;2023-05-10T17:44:36;17.70;99.90
35613;DHT22;22054;51.646;7.078;2023-05-10T17:48:00;17.60;99.90
35613;DHT22;22054;51.646;7.078;2023-05-10T17:51:34;17.40;99.90
35613;DHT22;22054;51.646;7.078;2023-05-10T17:54:58;17.30;99.90
35613;DHT22;22054;51.646;7.078;2023-05-10T17:58:34;17.40;99.90
35613;DHT22;22054;51.646;7.078;2023-05-10T18:02:05;17.10;99.90
35613;DHT22;22054;51.646;7.078;2023-05-10T18:05:30;17.10;99.90
35613;DHT22;22054;51.646;7.078;2023-05-10T18:08:54;17.30;99.90
35613;DHT22;22054;51.646;7.078;2023-05-10T18:12:18;16.90;99.90
35613;DHT22;22054;51.646;7.078;2023-05-10T18:15:42;16.80;99.90
35613;DHT22;22054;51.646;7.078;2023-05-10T18:19:07;16.50;99.90
35613;DHT22;22054;51.646;7.078;2023-05-10T18:22:32;16.30;99.90
35613;DHT22;22054;51.646;7.078;2023-05-10T18:25:56;16.20;99.90
35613;DHT22;22054;51.646;7.078;2023-05-10T18:29:21;16.20;99.90
35613;DHT22;22054;51.646;7.078;2023-05-10T18:32:48;16.20;99.90
35613;DHT22;22054;51.646;7.078;2023-05-10T18:36:13;16.40;99.90
35613;DHT22;22054;51.646;7.078;2023-05-10T18:39:38;16.30;99.90
35613;DHT22;22054;51.646;7.078;2023-05-10T18:43:03;16.30;99.90
35613;DHT22;22054;51.646;7.078;2023-05-10T18:46:27;16.10;99.90
35613;DHT22;22054;51.646;7.078;2023-05-10T18:49:52;16.10;99.90
35613;DHT22;22054;51.646;7.078;2023-05-10T18:53:16;16.00;99.90
35613;DHT22;22054;51.646;7.078;2023-05-10T18:56:42;16.00;99.90
35613;DHT22;22054;51.646;7.078;2023-05-10T19:00:08;15.80;99.90
35613;DHT22;22054;51.646;7.078;2023-05-10T19:03:34;15.70;99.90
35613;DHT22;22054;51.646;7.078;2023-05-10T19:06:58;15.70;99.90
35613;DHT22;22054;51.646;7.078;2023-05-10T19:10:22;15.80;99.90
35613;DHT22;22054;51.646;7.078;2023-05-10T19:13:47;15.70;99.90
35613;DHT22;22054;51.646;7.078;2023-05-10T19:17:11;15.60;99.90
35613;DHT22;22054;51.646;7.078;2023-05-10T19:20:35;15.60;99.90
35613;DHT22;22054;51.646;7.078;2023-05-10T19:24:00;15.50;99.90
35613;DHT22;22054;51.646;7.078;2023-05-10T19:27:24;15.40;99.90
35613;DHT22;22054;51.646;7.078;2023-05-10T19:30:48;15.40;99.90
35613;DHT22;22054;51.646;7.078;2023-05-10T19:34:13;15.30;99.90
35613;DHT22;22054;51.646;7.078;2023-05-10T19:37:37;15.30;99.90
35613;DHT22;22054;51.646;7.078;2023-05-10T19:41:03;15.10;99.90
35613;DHT22;22054;51.646;7.078;2023-05-10T19:44:27;15.10;99.90
35613;DHT22;22054;51.646;7.078;2023-05-10T19:47:52;15.20;99.90
35613;DHT22;22054;51.646;7.078;2023-05-10T19:51:16;15.30;99.90
35613;DHT22;22054;51.646;7.078;2023-05-10T19:54:40;15.20;99.90
35613;DHT22;22054;51.646;7.078;2023-05-10T19:58:04;15.30;99.90
35613;DHT22;22054;51.646;7.078;2023-05-10T20:04:58;15.30;99.90
35613;DHT22;22054;51.646;7.078;2023-05-10T20:08:22;15.10;99.90
35613;DHT22;22054;51.646;7.078;2023-05-10T20:11:48;15.30;99.90
35613;DHT22;22054;51.646;7.078;2023-05-10T20:15:16;15.10;99.90
35613;DHT22;22054;51.646;7.078;2023-05-10T20:18:41;15.00;99.90
35613;DHT22;22054;51.646;7.078;2023-05-10T20:22:10;15.00;99.90
35613;DHT22;22054;51.646;7.078;2023-05-10T20:25:34;15.00;99.90
35613;DHT22;22054;51.646;7.078;2023-05-10T20:28:58;14.80;99.90
35613;DHT22;22054;51.646;7.078;2023-05-10T20:32:22;15.00;99.90
35613;DHT22;22054;51.646;7.078;2023-05-10T20:35:47;15.10;99.90
35613;DHT22;22054;51.646;7.078;2023-05-10T20:39:12;14.60;99.90
35613;DHT22;22054;51.646;7.078;2023-05-10T20:42:36;14.70;99.90
35613;DHT22;22054;51.646;7.078;2023-05-10T20:46:00;14.50;99.90
35613;DHT22;22054;51.646;7.078;2023-05-10T20:49:24;14.50;99.90
35613;DHT22;22054;51.646;7.078;2023-05-10T20:52:49;14.50;99.90
35613;DHT22;22054;51.646;7.078;2023-05-10T20:56:13;14.40;99.90
35613;DHT22;22054;51.646;7.078;2023-05-10T20:59:37;14.40;99.90
35613;DHT22;22054;51.646;7.078;2023-05-10T21:03:01;14.40;99.90
35613;DHT22;22054;51.646;7.078;2023-05-10T21:06:26;14.40;99.90
35613;DHT22;22054;51.646;7.078;2023-05-10T21:09:50;14.40;99.90
35613;DHT22;22054;51.646;7.078;2023-05-10T21:13:14;14.40;99.90
35613;DHT22;22054;51.646;7.078;2023-05-10T21:16:38;14.60;99.90
35613;DHT22;22054;51.646;7.078;2023-05-10T21:20:03;14.50;99.90
35613;DHT22;22054;51.646;7.078;2023-05-10T21:23:27;14.70;99.90
35613;DHT22;22054;51.646;7.078;2023-05-10T21:26:51;14.80;99.90
35613;DHT22;22054;51.646;7.078;2023-05-10T21:30:15;14.60;99.90
35613;DHT22;22054;51.646;7.078;2023-05-10T21:33:40;14.60;99.90
35613;DHT22;22054;51.646;7.078;2023-05-10T21:37:04;14.50;99.90
35613;DHT22;22054;51.646;7.078;2023-05-10T21:40:28;14.50;99.90
35613;DHT22;22054;51.646;7.078;2023-05-10T21:43:53;14.40;99.90
35613;DHT22;22054;51.646;7.078;2023-05-10T21:47:17;14.50;99.90
35613;DHT22;22054;51.646;7.078;2023-05-10T21:50:42;14.40;99.90
35613;DHT22;22054;51.646;7.078;2023-05-10T21:54:06;14.40;99.90
35613;DHT22;22054;51.646;7.078;2023-05-10T21:57:32;14.60;99.90
35613;DHT22;22054;51.646;7.078;2023-05-10T22:00:57;14.30;99.90
35613;DHT22;22054;51.646;7.078;2023-05-10T22:04:21;14.30;99.90
35613;DHT22;22054;51.646;7.078;2023-05-10T22:07:45;14.40;99.90
35613;DHT22;22054;51.646;7.078;2023-05-10T22:11:09;14.60;99.90
35613;DHT22;22054;51.646;7.078;2023-05-10T22:14:34;14.40;99.90
35613;DHT22;22054;51.646;7.078;2023-05-10T22:17:58;14.50;99.90
35613;DHT22;22054;51.646;7.078;2023-05-10T22:21:22;14.50;99.90
35613;DHT22;22054;51.646;7.078;2023-05-10T22:24:46;14.60;99.90
35613;DHT22;22054;51.646;7.078;2023-05-10T22:28:11;14.40;99.90
35613;DHT22;22054;51.646;7.078;2023-05-10T22:31:35;14.30;99.90
35613;DHT22;22054;51.646;7.078;2023-05-10T22:34:59;14.40;99.90
35613;DHT22;22054;51.646;7.078;2023-05-10T22:38:24;14.40;99.90
35613;DHT22;22054;51.646;7.078;2023-05-10T22:41:48;14.60;99.90
35613;DHT22;22054;51.646;7.078;2023-05-10T22:45:12;14.40;99.90
35613;DHT22;22054;51.646;7.078;2023-05-10T22:48:37;14.40;99.90
35613;DHT22;22054;51.646;7.078;2023-05-10T22:52:01;14.70;99.90
35613;DHT22;22054;51.646;7.078;2023-05-10T22:55:25;14.50;99.90